createdAt,value
2018-03-17T00:01:28.458Z,11.85
2018-03-17T00:03:57.900Z,11.00
2018-03-17T00:06:26.224Z,11.00
2018-03-17T00:08:54.544Z,13.30
2018-03-17T00:11:22.928Z,12.20
2018-03-17T00:13:51.256Z,13.23
2018-03-17T00:16:20.482Z,14.33
2018-03-17T00:18:48.896Z,13.03
2018-03-17T00:21:17.253Z,12.20
2018-03-17T00:23:45.576Z,10.10
2018-03-17T00:26:13.954Z,10.20
2018-03-17T00:28:42.288Z,11.40
2018-03-17T00:31:10.617Z,12.00
2018-03-17T00:33:39.021Z,10.67
2018-03-17T00:36:07.409Z,9.50
2018-03-17T00:38:36.488Z,9.60
2018-03-17T00:41:04.829Z,9.30
2018-03-17T00:43:33.150Z,9.60
2018-03-17T00:46:01.488Z,9.23
2018-03-17T00:48:32.739Z,9.53
2018-03-17T00:51:01.464Z,10.93
2018-03-17T00:53:30.801Z,9.20
2018-03-17T00:55:59.112Z,9.43
2018-03-17T00:58:28.095Z,9.33
2018-03-17T01:00:56.436Z,9.50
2018-03-17T01:03:24.761Z,10.87
2018-03-17T01:05:53.172Z,10.03
2018-03-17T01:08:21.484Z,10.87
2018-03-17T01:10:49.824Z,10.73
2018-03-17T01:13:18.532Z,10.50
2018-03-17T01:15:47.603Z,10.30
2018-03-17T01:18:15.951Z,11.67
2018-03-17T01:20:44.463Z,10.93
2018-03-17T01:23:12.788Z,11.00
2018-03-17T01:25:41.117Z,11.00
2018-03-17T01:28:09.556Z,11.15
2018-03-17T01:30:38.163Z,12.83
2018-03-17T01:33:06.798Z,12.20
2018-03-17T01:35:35.773Z,10.50
2018-03-17T01:38:04.100Z,12.18
2018-03-17T01:40:32.416Z,11.40
2018-03-17T01:43:00.757Z,12.47
2018-03-17T01:45:29.696Z,12.43
2018-03-17T01:47:58.136Z,10.23
2018-03-17T01:50:26.460Z,12.70
2018-03-17T01:52:54.781Z,11.47
2018-03-17T01:55:23.138Z,10.63
2018-03-17T01:57:51.448Z,11.40
2018-03-17T02:00:19.764Z,11.67
2018-03-17T02:02:48.159Z,11.77
2018-03-17T02:05:17.681Z,11.87
2018-03-17T02:07:46.016Z,14.17
2018-03-17T02:10:14.384Z,13.10
2018-03-17T02:12:42.714Z,13.50
2018-03-17T02:15:11.068Z,11.53
2018-03-17T02:17:39.435Z,10.93
2018-03-17T02:20:08.948Z,12.33
2018-03-17T02:22:37.268Z,12.50
2018-03-17T02:25:05.620Z,12.70
2018-03-17T02:27:33.933Z,13.17
2018-03-17T02:30:02.265Z,11.53
2018-03-17T02:32:30.625Z,14.07
2018-03-17T02:34:58.948Z,12.97
2018-03-17T02:37:28.243Z,11.30
2018-03-17T02:39:56.741Z,13.87
2018-03-17T02:42:25.510Z,11.27
2018-03-17T02:44:53.860Z,12.90
2018-03-17T02:47:22.220Z,13.20
2018-03-17T02:49:50.557Z,11.30
2018-03-17T02:52:18.933Z,10.10
2018-03-17T02:54:47.271Z,9.87
2018-03-17T02:57:16.384Z,9.95
2018-03-17T02:59:45.133Z,10.00
2018-03-17T03:02:13.461Z,10.35
2018-03-17T03:04:41.800Z,10.20
2018-03-17T03:07:11.257Z,10.90
2018-03-17T03:09:39.584Z,11.55
2018-03-17T03:12:07.915Z,9.10
2018-03-17T03:14:36.417Z,9.20
2018-03-17T03:17:04.736Z,10.80
2018-03-17T03:19:33.084Z,10.80
2018-03-17T03:22:01.639Z,9.20
2018-03-17T03:24:29.953Z,8.80
2018-03-17T03:26:58.019Z,9.67
2018-03-17T03:29:26.752Z,10.33
2018-03-17T03:31:55.096Z,9.93
2018-03-17T03:34:23.432Z,9.90
2018-03-17T03:36:52.080Z,9.20
2018-03-17T03:39:20.723Z,9.50
2018-03-17T03:41:49.104Z,9.60
2018-03-17T03:44:17.437Z,7.50
2018-03-17T03:46:45.758Z,9.50
2018-03-17T03:49:15.100Z,9.50
2018-03-17T03:51:43.440Z,9.23
2018-03-17T03:54:11.797Z,9.00
2018-03-17T03:56:40.203Z,9.63
2018-03-17T03:59:08.589Z,8.33
2018-03-17T04:01:36.923Z,8.90
2018-03-17T04:04:05.260Z,9.30
2018-03-17T04:06:33.758Z,8.00
2018-03-17T04:09:03.556Z,9.63
2018-03-17T04:11:32.651Z,8.83
2018-03-17T04:14:01.741Z,9.60
2018-03-17T04:16:30.165Z,9.57
2018-03-17T04:18:58.533Z,9.50
2018-03-17T04:21:26.876Z,9.57
2018-03-17T04:23:55.218Z,9.27
2018-03-17T04:26:23.533Z,8.37
2018-03-17T04:28:51.933Z,9.90
2018-03-17T04:31:21.088Z,10.33
2018-03-17T04:33:49.495Z,8.90
2018-03-17T04:36:17.821Z,10.67
2018-03-17T04:38:46.240Z,13.37
2018-03-17T04:41:14.551Z,18.27
2018-03-17T04:43:43.404Z,23.23
2018-03-17T04:46:11.759Z,20.90
2018-03-17T04:48:40.090Z,16.00
2018-03-17T04:51:08.432Z,16.77
2018-03-17T04:53:36.880Z,22.73
2018-03-17T04:56:05.238Z,21.70
2018-03-17T04:58:33.569Z,17.73
2018-03-17T05:01:02.072Z,16.90
2018-03-17T05:03:30.401Z,21.70
2018-03-17T05:05:58.732Z,22.33
2018-03-17T05:08:27.125Z,20.20
2018-03-17T05:10:55.473Z,19.80
2018-03-17T05:13:23.792Z,21.40
2018-03-17T05:15:52.163Z,16.27
2018-03-17T05:18:20.480Z,17.53
2018-03-17T05:20:48.804Z,15.13
2018-03-17T05:23:17.209Z,14.20
2018-03-17T05:25:45.527Z,12.20
2018-03-17T05:28:13.848Z,11.17
2018-03-17T05:30:42.218Z,12.50
2018-03-17T05:33:10.541Z,11.70
2018-03-17T05:35:39.181Z,12.37
2018-03-17T05:38:08.323Z,11.20
2018-03-17T05:40:36.660Z,11.63
2018-03-17T05:43:05.561Z,10.67
2018-03-17T05:45:33.883Z,12.30
2018-03-17T05:48:02.202Z,11.13
2018-03-17T05:50:31.320Z,8.60
2018-03-17T05:53:02.031Z,10.70
2018-03-17T05:55:30.372Z,10.53
2018-03-17T05:57:58.696Z,9.17
2018-03-17T06:00:27.087Z,10.67
2018-03-17T06:02:55.970Z,13.13
2018-03-17T06:05:24.304Z,12.83
2018-03-17T06:07:52.664Z,11.90
2018-03-17T06:10:21.005Z,11.57
2018-03-17T06:12:49.338Z,12.33
2018-03-17T06:15:17.698Z,13.43
2018-03-17T06:17:46.064Z,13.20
2018-03-17T06:20:14.660Z,12.33
2018-03-17T06:22:42.976Z,12.50
2018-03-17T06:25:11.307Z,12.97
2018-03-17T06:27:39.652Z,15.40
2018-03-17T06:30:07.978Z,13.43
2018-03-17T06:32:36.320Z,14.20
2018-03-17T06:35:05.404Z,14.93
2018-03-17T06:37:34.504Z,14.60
2018-03-17T06:40:03.588Z,15.73
2018-03-17T06:42:33.234Z,15.40
2018-03-17T06:45:01.549Z,15.30
2018-03-17T06:47:29.865Z,15.83
2018-03-17T06:49:58.342Z,17.90
2018-03-17T06:52:26.653Z,16.53
2018-03-17T06:54:55.016Z,15.40
2018-03-17T06:57:23.340Z,14.23
2018-03-17T06:59:51.682Z,15.53
2018-03-17T07:02:20.372Z,17.00
2018-03-17T07:04:48.697Z,17.20
2018-03-17T07:07:17.034Z,17.97
2018-03-17T07:09:45.405Z,16.60
2018-03-17T07:12:13.718Z,17.90
2018-03-17T07:14:42.040Z,17.90
2018-03-17T07:17:10.409Z,17.20
2018-03-17T07:19:38.738Z,17.87
2018-03-17T07:22:07.610Z,15.97
2018-03-17T07:24:36.009Z,17.83
2018-03-17T07:27:04.333Z,16.97
2018-03-17T07:29:32.721Z,18.20
2018-03-17T07:32:01.138Z,17.10
2018-03-17T07:34:29.449Z,16.33
2018-03-17T07:36:57.775Z,17.30
2018-03-17T07:39:26.281Z,16.33
2018-03-17T07:41:54.615Z,21.90
2018-03-17T07:44:22.936Z,18.10
2018-03-17T07:46:51.324Z,16.20
2018-03-17T07:49:19.640Z,16.97
2018-03-17T07:51:48.732Z,17.73
2018-03-17T07:54:18.479Z,17.57
2018-03-17T07:56:46.806Z,14.37
2018-03-17T07:59:15.133Z,16.30
2018-03-17T08:01:43.476Z,14.07
2018-03-17T08:04:12.557Z,15.80
2018-03-17T08:06:41.681Z,15.57
2018-03-17T08:09:10.008Z,17.03
2018-03-17T08:11:38.571Z,19.23
2018-03-17T08:14:06.892Z,14.80
2018-03-17T08:16:35.972Z,17.20
2018-03-17T08:19:04.323Z,18.67
2018-03-17T08:21:32.651Z,18.47
2018-03-17T08:24:01.015Z,15.70
2018-03-17T08:26:29.356Z,17.80
2018-03-17T08:28:57.724Z,18.70
2018-03-17T08:31:26.097Z,17.97
2018-03-17T08:33:54.414Z,19.60
2018-03-17T08:36:23.241Z,19.77
2018-03-17T08:38:51.640Z,22.40
2018-03-17T08:41:19.965Z,19.90
2018-03-17T08:43:50.508Z,21.67
2018-03-17T08:46:19.652Z,19.43
2018-03-17T08:48:48.705Z,17.93
2018-03-17T08:51:17.782Z,19.40
2018-03-17T08:53:46.269Z,19.57
2018-03-17T08:56:14.649Z,15.47
2018-03-17T08:58:43.389Z,19.97
2018-03-17T09:01:11.734Z,15.90
2018-03-17T09:03:40.133Z,18.27
2018-03-17T09:06:08.453Z,13.67
2018-03-17T09:08:36.818Z,18.87
2018-03-17T09:11:05.160Z,15.70
2018-03-17T09:13:33.498Z,18.30
2018-03-17T09:16:01.876Z,15.90
2018-03-17T09:18:30.211Z,21.87
2018-03-17T09:20:58.533Z,20.47
2018-03-17T09:23:26.873Z,18.97
2018-03-17T09:25:55.189Z,19.50
2018-03-17T09:28:23.550Z,21.43
2018-03-17T09:30:51.975Z,18.70
2018-03-17T09:33:20.282Z,22.40
2018-03-17T09:35:49.396Z,18.70
2018-03-17T09:38:18.133Z,19.63
2018-03-17T09:40:47.426Z,20.77
2018-03-17T09:43:15.820Z,19.17
2018-03-17T09:45:44.548Z,19.70
2018-03-17T09:48:13.702Z,22.10
2018-03-17T09:50:42.828Z,18.47
2018-03-17T09:53:11.145Z,18.30
2018-03-17T09:55:41.173Z,16.47
2018-03-17T09:58:09.580Z,18.80
2018-03-17T10:00:37.897Z,22.83
2018-03-17T10:03:06.212Z,14.90
2018-03-17T10:05:35.677Z,18.40
2018-03-17T10:08:04.008Z,22.10
2018-03-17T10:10:33.516Z,19.97
2018-03-17T10:13:01.935Z,19.93
2018-03-17T10:15:30.312Z,13.63
2018-03-17T10:17:58.656Z,20.57
2018-03-17T10:20:27.657Z,16.30
2018-03-17T10:22:56.271Z,20.33
2018-03-17T10:25:24.611Z,19.87
2018-03-17T10:27:53.012Z,19.57
2018-03-17T10:30:22.092Z,16.40
2018-03-17T10:32:50.413Z,21.00
2018-03-17T10:35:18.994Z,19.37
2018-03-17T10:37:47.388Z,19.80
2018-03-17T10:40:15.692Z,19.97
2018-03-17T10:42:45.728Z,21.03
2018-03-17T10:45:14.887Z,20.63
2018-03-17T10:47:44.155Z,20.17
2018-03-17T10:50:13.053Z,19.77
2018-03-17T10:52:41.365Z,20.63
2018-03-17T10:55:09.760Z,31.47
2018-03-17T10:57:38.027Z,23.17
2018-03-17T11:00:06.258Z,20.33
2018-03-17T11:02:39.966Z,17.67
2018-03-17T11:05:08.593Z,20.87
2018-03-17T11:07:36.817Z,21.90
2018-03-17T11:10:05.145Z,21.03
2018-03-17T11:12:33.461Z,20.93
2018-03-17T11:15:02.810Z,28.30
2018-03-17T11:17:32.596Z,21.70
2018-03-17T11:20:00.925Z,23.07
2018-03-17T11:22:29.801Z,22.30
2018-03-17T11:25:03.882Z,21.47
2018-03-17T11:27:32.223Z,23.80
2018-03-17T11:30:06.609Z,11.27
2018-03-17T11:32:40.548Z,20.10
2018-03-17T11:35:09.492Z,21.67
2018-03-17T11:37:38.465Z,14.50
2018-03-17T11:40:07.680Z,22.20
2018-03-17T11:42:36.727Z,22.93
2018-03-17T11:45:05.100Z,21.43
2018-03-17T11:47:33.544Z,25.37
2018-03-17T11:50:01.869Z,26.20
2018-03-17T11:52:30.408Z,20.73
2018-03-17T11:54:58.725Z,19.43
2018-03-17T11:57:27.809Z,15.43
2018-03-17T11:59:56.166Z,23.53
2018-03-17T12:02:24.905Z,22.50
2018-03-17T12:04:53.218Z,17.87
2018-03-17T12:07:22.408Z,22.80
2018-03-17T12:09:50.722Z,23.40
2018-03-17T12:12:19.809Z,24.30
2018-03-17T12:14:48.933Z,26.20
2018-03-17T12:17:17.261Z,23.80
2018-03-17T12:19:47.360Z,23.10
2018-03-17T12:22:15.726Z,18.93
2018-03-17T12:24:44.206Z,23.37
2018-03-17T12:27:12.513Z,23.97
2018-03-17T12:29:41.680Z,23.80
2018-03-17T12:32:10.533Z,21.93
2018-03-17T12:34:39.439Z,20.63
2018-03-17T12:37:07.777Z,22.40
2018-03-17T12:39:36.272Z,24.10
2018-03-17T12:42:04.744Z,21.80
2018-03-17T12:44:33.453Z,22.77
2018-03-17T12:47:02.324Z,21.83
2018-03-17T12:49:31.332Z,21.30
2018-03-17T12:52:00.412Z,21.37
2018-03-17T12:54:29.402Z,22.40
2018-03-17T12:56:57.717Z,18.93
2018-03-17T12:59:26.043Z,19.70
2018-03-17T13:01:55.121Z,23.00
2018-03-17T13:04:23.437Z,23.07
2018-03-17T13:06:51.876Z,24.07
2018-03-17T13:09:20.705Z,22.30
2018-03-17T13:11:49.021Z,21.63
2018-03-17T13:14:17.393Z,22.43
2018-03-17T13:16:45.701Z,20.50
2018-03-17T13:19:31.866Z,19.40
2018-03-17T13:22:00.827Z,19.60
2018-03-17T13:24:29.152Z,22.90
2018-03-17T13:27:15.088Z,21.93
2018-03-17T13:29:43.404Z,19.60
2018-03-17T13:32:29.324Z,20.27
2018-03-17T13:34:57.653Z,21.07
2018-03-17T13:37:38.103Z,14.60
2018-03-17T13:53:54.132Z,18.27
2018-03-17T13:56:22.473Z,21.00
2018-03-17T13:58:50.802Z,20.30
2018-03-17T14:01:19.180Z,21.63
2018-03-17T14:03:47.493Z,20.40
2018-03-17T14:06:15.802Z,22.50
2018-03-17T14:08:44.212Z,21.33
2018-03-17T14:11:12.516Z,16.40
2018-03-17T14:13:40.820Z,18.73
2018-03-17T14:16:09.196Z,14.90
2018-03-17T14:18:37.516Z,19.17
2018-03-17T14:21:05.834Z,24.30
2018-03-17T14:23:34.588Z,20.87
2018-03-17T14:26:03.034Z,21.07
2018-03-17T14:28:31.970Z,22.97
2018-03-17T14:31:00.639Z,17.90
2018-03-17T14:33:28.945Z,20.43
2018-03-17T14:35:58.800Z,18.40
2018-03-17T14:38:27.568Z,20.40
2018-03-17T14:40:56.855Z,20.33
2018-03-17T14:43:29.021Z,18.73
2018-03-17T14:45:58.004Z,22.60
2018-03-17T14:48:26.312Z,22.60
2018-03-17T14:50:54.700Z,21.20
2018-03-17T14:53:23.065Z,16.67
2018-03-17T14:55:51.489Z,22.10
2018-03-17T14:58:20.770Z,20.93
2018-03-17T15:00:49.900Z,22.20
2018-03-17T15:03:18.405Z,21.03
2018-03-17T15:05:47.371Z,20.30
2018-03-17T15:08:15.689Z,22.47
2018-03-17T15:10:44.008Z,23.60
2018-03-17T15:13:12.392Z,22.47
2018-03-17T15:15:40.708Z,22.07
2018-03-17T15:18:09.016Z,20.37
2018-03-17T15:20:38.383Z,22.23
2018-03-17T15:23:07.209Z,21.73
2018-03-17T15:25:35.585Z,18.63
2018-03-17T15:28:03.960Z,23.70
2018-03-17T15:30:32.268Z,20.73
2018-03-17T15:33:00.640Z,17.50
2018-03-17T15:35:30.429Z,23.07
2018-03-17T15:37:58.679Z,22.53
2018-03-17T15:40:26.997Z,20.20
2018-03-17T15:42:55.428Z,19.37
2018-03-17T15:45:24.389Z,22.67
2018-03-17T15:47:52.709Z,22.63
2018-03-17T15:50:21.501Z,21.93
2018-03-17T15:52:50.042Z,15.13
2018-03-17T15:55:18.912Z,23.60
2018-03-17T15:57:47.240Z,21.37
2018-03-17T16:00:16.403Z,17.00
2018-03-17T16:02:44.082Z,23.27
2018-03-17T16:05:12.701Z,21.33
2018-03-17T16:07:41.141Z,19.57
2018-03-17T16:10:10.143Z,21.30
2018-03-17T16:12:39.224Z,21.90
2018-03-17T16:15:08.533Z,20.43
2018-03-17T16:17:37.581Z,19.37
2018-03-17T16:20:06.678Z,18.83
2018-03-17T16:22:35.556Z,18.20
2018-03-17T16:25:03.883Z,23.30
2018-03-17T16:27:32.196Z,20.13
2018-03-17T16:30:00.566Z,19.90
2018-03-17T16:32:28.973Z,21.47
2018-03-17T16:34:58.056Z,22.85
2018-03-17T16:37:26.805Z,23.70
2018-03-17T16:39:55.132Z,22.20
2018-03-17T16:42:23.444Z,22.50
2018-03-17T16:44:51.804Z,22.13
2018-03-17T16:47:23.109Z,21.20
2018-03-17T16:49:51.469Z,11.20
2018-03-17T16:52:20.109Z,16.57
2018-03-17T16:54:48.429Z,20.80
2018-03-17T16:57:16.798Z,21.67
2018-03-17T16:59:45.112Z,20.70
2018-03-17T17:02:13.434Z,22.73
2018-03-17T17:04:42.574Z,20.37
2018-03-17T17:07:10.891Z,18.20
2018-03-17T17:09:39.229Z,21.20
2018-03-17T17:12:07.618Z,16.70
2018-03-17T17:14:35.943Z,19.57
2018-03-17T17:17:04.268Z,16.87
2018-03-17T17:19:32.992Z,15.57
2018-03-17T17:22:02.084Z,20.15
2018-03-17T17:24:31.354Z,17.53
2018-03-17T17:27:00.080Z,13.10
2018-03-17T17:29:29.064Z,16.90
2018-03-17T17:31:57.379Z,18.33
2018-03-17T17:34:26.144Z,13.47
2018-03-17T17:36:55.530Z,17.63
2018-03-17T17:39:23.840Z,16.70
2018-03-17T17:41:52.168Z,19.20
2018-03-17T17:44:20.537Z,16.25
2018-03-17T17:46:49.329Z,14.00
2018-03-17T17:49:17.649Z,15.93
2018-03-17T17:51:45.992Z,15.90
2018-03-17T17:54:14.340Z,19.00
2018-03-17T17:56:42.676Z,16.57
2018-03-17T17:59:11.063Z,14.73
2018-03-17T18:01:39.478Z,20.40
2018-03-17T18:04:08.532Z,15.80
2018-03-17T18:06:38.256Z,17.37
2018-03-17T18:09:06.588Z,18.17
2018-03-17T18:11:34.931Z,14.40
2018-03-17T18:14:03.569Z,16.70
2018-03-17T18:16:32.061Z,17.87
2018-03-17T18:19:00.366Z,12.67
2018-03-17T18:21:29.425Z,14.13
2018-03-17T18:23:57.769Z,15.00
2018-03-17T18:26:26.797Z,16.97
2018-03-17T18:28:55.750Z,16.07
2018-03-17T18:31:24.035Z,17.33
2018-03-17T18:33:52.564Z,16.03
2018-03-17T18:36:20.936Z,12.15
2018-03-17T18:38:49.284Z,16.58
2018-03-17T18:41:17.957Z,17.97
2018-03-17T18:43:46.268Z,14.33
2018-03-17T18:46:14.637Z,14.90
2018-03-17T18:48:42.997Z,17.65
2018-03-17T18:51:11.317Z,16.70
2018-03-17T18:53:40.760Z,18.23
2018-03-17T18:56:09.121Z,15.85
2018-03-17T18:58:37.438Z,12.13
2018-03-17T19:01:05.805Z,16.90
2018-03-17T19:03:34.617Z,16.58
2018-03-17T19:06:03.703Z,14.05
2018-03-17T19:08:32.056Z,14.50
2018-03-17T19:11:00.405Z,12.27
2018-03-17T19:13:28.765Z,15.45
2018-03-17T19:15:57.156Z,15.75
2018-03-17T19:18:25.701Z,13.05
2018-03-17T19:20:54.621Z,10.00
2018-03-17T19:23:23.048Z,14.03
2018-03-17T19:25:51.375Z,15.13
2018-03-17T19:28:20.549Z,14.23
2018-03-17T19:30:50.299Z,13.27
2018-03-17T19:33:18.626Z,15.00
2018-03-17T19:35:47.548Z,16.12
2018-03-17T19:38:16.175Z,13.80
2018-03-17T19:40:45.820Z,11.15
2018-03-17T19:43:14.140Z,14.90
2018-03-17T19:45:42.520Z,17.62
2018-03-17T19:48:11.291Z,16.17
2018-03-17T19:50:40.063Z,14.43
2018-03-17T19:53:10.353Z,12.80
2018-03-17T19:55:38.863Z,13.73
2018-03-17T19:58:07.648Z,17.65
2018-03-17T20:00:36.197Z,17.62
2018-03-17T20:03:05.208Z,12.15
2018-03-17T20:05:34.740Z,14.55
2018-03-17T20:08:04.030Z,17.58
2018-03-17T20:10:32.456Z,12.82
2018-03-17T20:13:00.786Z,17.40
2018-03-17T20:15:29.060Z,17.95
2018-03-17T20:17:57.419Z,18.67
2018-03-17T20:20:28.930Z,17.83
2018-03-17T20:22:57.347Z,16.05
2018-03-17T20:25:25.957Z,21.77
2018-03-17T20:27:54.350Z,18.50
2018-03-17T20:30:22.708Z,10.73
2018-03-17T20:32:51.041Z,18.80
2018-03-17T20:35:19.401Z,18.08
2018-03-17T20:37:48.472Z,16.00
2018-03-17T20:40:17.396Z,18.77
2018-03-17T20:42:47.340Z,15.50
2018-03-17T20:45:16.664Z,18.60
2018-03-17T20:47:45.012Z,18.77
2018-03-17T20:50:13.452Z,18.45
2018-03-17T20:52:42.803Z,17.80
2018-03-17T20:55:12.056Z,13.65
2018-03-17T20:57:40.484Z,20.73
2018-03-17T21:00:09.593Z,17.23
2018-03-17T21:02:38.537Z,15.32
2018-03-17T21:05:06.755Z,19.23
2018-03-17T21:07:35.277Z,21.12
2018-03-17T21:10:02.902Z,16.60
2018-03-17T21:12:31.812Z,17.62
2018-03-17T21:15:00.149Z,19.70
2018-03-17T21:17:28.592Z,17.48
2018-03-17T21:19:56.881Z,21.60
2018-03-17T21:22:25.228Z,20.62
2018-03-17T21:24:53.833Z,19.90
2018-03-17T21:27:22.164Z,17.87
2018-03-17T21:29:50.527Z,22.50
2018-03-17T21:32:18.857Z,18.48
2018-03-17T21:34:47.185Z,23.80
2018-03-17T21:37:16.858Z,20.45
2018-03-17T21:39:45.048Z,25.08
2018-03-17T21:42:14.121Z,19.15
2018-03-17T21:44:43.349Z,18.75
2018-03-17T21:47:12.453Z,24.73
2018-03-17T21:49:43.203Z,24.42
2018-03-17T21:52:12.965Z,19.42
2018-03-17T21:54:41.360Z,21.67
2018-03-17T21:57:09.653Z,23.45
2018-03-17T21:59:37.988Z,22.83
2018-03-17T22:02:08.523Z,19.27
2018-03-17T22:04:36.808Z,20.80
2018-03-17T22:07:06.004Z,22.45
2018-03-17T22:09:34.344Z,23.92
2018-03-17T22:12:02.867Z,24.67
2018-03-17T22:14:32.613Z,22.62
2018-03-17T22:17:02.307Z,21.98
2018-03-17T22:19:31.225Z,19.02
2018-03-17T22:22:00.584Z,23.92
2018-03-17T22:24:28.909Z,20.90
2018-03-17T22:27:00.449Z,23.83
2018-03-17T22:29:29.312Z,22.40
2018-03-17T22:31:58.508Z,26.52
2018-03-17T22:34:26.821Z,23.73
2018-03-17T22:36:55.373Z,25.30
2018-03-17T22:39:24.244Z,27.05
2018-03-17T22:41:52.569Z,26.92
2018-03-17T22:44:20.974Z,24.55
2018-03-17T22:46:49.657Z,23.90
2018-03-17T22:49:18.090Z,24.75
2018-03-17T22:51:46.412Z,23.08
2018-03-17T22:54:15.423Z,23.95
2018-03-17T22:56:44.643Z,26.62
2018-03-17T22:59:12.972Z,22.17
2018-03-17T23:01:41.789Z,21.95
2018-03-17T23:04:11.101Z,23.38
2018-03-17T23:06:39.537Z,20.80
2018-03-17T23:09:07.860Z,24.08
2018-03-17T23:11:36.771Z,23.98
2018-03-17T23:14:05.095Z,23.10
2018-03-17T23:16:33.490Z,22.60
2018-03-17T23:19:01.837Z,20.17
2018-03-17T23:21:30.181Z,25.98
2018-03-17T23:23:59.296Z,23.15
2018-03-17T23:26:27.618Z,24.77
2018-03-17T23:28:55.999Z,18.65
2018-03-17T23:31:24.813Z,21.10
2018-03-17T23:33:53.448Z,26.27
2018-03-17T23:36:22.029Z,24.60
2018-03-17T23:38:50.229Z,26.02
2018-03-17T23:41:18.554Z,25.12
2018-03-17T23:43:46.909Z,24.92
2018-03-17T23:46:16.057Z,26.02
2018-03-17T23:48:44.418Z,24.40
2018-03-17T23:51:12.759Z,24.17
2018-03-17T23:53:41.124Z,23.92
2018-03-17T23:56:09.480Z,25.25
2018-03-17T23:58:38.020Z,25.60
